Time;durP1;ratioP1;P1;durP2;ratioP2;P2;SDS_P1;SDS_P2;PMS_P1;PMS_P2;Temp;Humidity;BMP_temperature;BMP_pressure;BME280_temperature;BME280_humidity;BME280_pressure;Samples;Min_cycle;Max_cycle;Signal;HPM_P1;HPM_P2
2022/09/19 00:01:47;;;;;;;3.70;1.10;;;14.60;49.60;;;;;;5033039;28;20162;-42
2022/09/19 00:04:24;;;;;;;2.85;1.15;;;14.60;49.50;;;;;;5032649;28;20269;-41
2022/09/19 00:06:53;;;;;;;1.63;0.80;;;14.70;50.00;;;;;;5032540;28;20655;-41
2022/09/19 00:09:22;;;;;;;2.25;0.85;;;14.60;49.50;;;;;;5032423;28;20740;-41
2022/09/19 00:11:50;;;;;;;1.45;0.90;;;14.60;49.70;;;;;;5032576;28;20162;-41
2022/09/19 00:14:18;;;;;;;2.72;1.58;;;14.60;49.70;;;;;;5032463;28;20719;-42
2022/09/19 00:16:46;;;;;;;2.28;0.82;;;14.60;49.80;;;;;;5032524;28;20174;-41
2022/09/19 00:19:20;;;;;;;1.73;0.77;;;14.60;49.90;;;;;;5032411;28;20186;-41
2022/09/19 00:21:48;;;;;;;5.45;1.30;;;14.70;50.10;;;;;;5032398;28;20165;-42
2022/09/19 00:27:03;;;;;;;1.88;1.02;;;14.70;50.00;;;;;;5032360;28;20212;-41
2022/09/19 00:29:32;;;;;;;1.42;0.95;;;14.70;50.10;;;;;;5032134;28;20608;-41
2022/09/19 00:31:58;;;;;;;1.30;0.70;;;14.70;50.10;;;;;;5032368;28;20633;-42
2022/09/19 00:34:25;;;;;;;1.08;0.63;;;14.70;49.80;;;;;;5032646;28;20177;-42
2022/09/19 00:36:51;;;;;;;1.20;0.60;;;14.70;50.00;;;;;;5031970;28;20253;-41
2022/09/19 00:39:18;;;;;;;2.10;1.05;;;14.70;49.90;;;;;;5031504;28;20189;-41
2022/09/19 00:41:45;;;;;;;1.52;0.93;;;14.70;50.00;;;;;;5032051;28;20178;-41
2022/09/19 00:44:22;;;;;;;1.60;0.82;;;14.60;50.00;;;;;;5032372;28;20169;-42
2022/09/19 00:46:55;;;;;;;2.60;0.88;;;14.50;49.80;;;;;;5031860;28;20660;-41
2022/09/19 00:49:22;;;;;;;1.42;1.13;;;14.60;49.90;;;;;;5031962;28;20569;-41
2022/09/19 00:51:55;;;;;;;2.55;1.00;;;14.50;50.00;;;;;;5032022;28;20181;-41
2022/09/19 00:54:30;;;;;;;1.63;0.95;;;14.50;50.20;;;;;;5032229;28;20174;-41
2022/09/19 00:56:57;;;;;;;1.75;0.80;;;14.50;50.50;;;;;;5031798;28;20173;-41
2022/09/19 00:59:25;;;;;;;1.48;0.55;;;14.50;50.20;;;;;;5032001;28;20205;-41
2022/09/19 01:01:56;;;;;;;2.30;0.82;;;14.50;50.30;;;;;;5031998;28;20657;-41
2022/09/19 01:04:24;;;;;;;2.25;0.80;;;14.50;50.00;;;;;;5032161;28;20197;-41
2022/09/19 01:07:20;;;;;;;2.15;1.17;;;14.50;50.20;;;;;;5032014;28;20529;-41
2022/09/19 01:10:03;;;;;;;3.10;1.40;;;14.50;50.20;;;;;;5031951;28;20213;-42
2022/09/19 01:12:54;;;;;;;1.40;1.00;;;14.50;50.30;;;;;;5031919;28;20182;-41
2022/09/19 01:15:47;;;;;;;4.30;0.85;;;14.50;50.50;;;;;;5031821;28;20665;-41
2022/09/19 01:18:13;;;;;;;2.15;0.80;;;14.50;50.50;;;;;;5009005;28;20356;-41
2022/09/19 01:21:37;;;;;;;2.08;1.15;;;14.50;50.50;;;;;;5031795;28;20208;-41
2022/09/19 01:24:07;;;;;;;3.15;0.65;;;14.50;50.40;;;;;;5031707;28;20174;-41
2022/09/19 01:26:58;;;;;;;4.43;1.10;;;14.50;50.40;;;;;;5031558;28;20196;-41
2022/09/19 01:29:51;;;;;;;1.90;1.35;;;14.50;50.50;;;;;;5031871;28;20212;-42
2022/09/19 01:32:23;;;;;;;2.35;0.90;;;14.50;50.40;;;;;;5023506;28;20249;-41
2022/09/19 01:35:01;;;;;;;2.78;1.13;;;14.40;50.60;;;;;;5031688;28;20182;-41
2022/09/19 01:37:49;;;;;;;2.63;0.80;;;14.40;50.60;;;;;;5031682;28;20154;-41
2022/09/19 01:40:17;;;;;;;2.28;0.80;;;14.30;50.80;;;;;;5031028;28;20241;-41
2022/09/19 01:42:55;;;;;;;2.35;0.90;;;14.40;50.90;;;;;;5031554;28;20186;-42
2022/09/19 01:45:32;;;;;;;2.20;0.82;;;14.40;51.00;;;;;;5031722;28;20255;-41
2022/09/19 01:48:15;;;;;;;5.55;1.10;;;14.40;50.90;;;;;;5031593;28;20166;-42
2022/09/19 01:50:42;;;;;;;1.48;0.70;;;14.40;51.00;;;;;;5033442;28;20214;-42
2022/09/19 01:53:28;;;;;;;1.42;1.10;;;14.40;51.10;;;;;;5035431;28;20181;-41
2022/09/19 01:56:06;;;;;;;4.03;0.73;;;14.40;51.20;;;;;;5035035;28;20174;-41
2022/09/19 01:58:54;;;;;;;1.20;0.90;;;14.40;51.30;;;;;;5035047;28;20424;-42
2022/09/19 02:01:44;;;;;;;1.20;0.77;;;14.40;51.30;;;;;;5035126;28;20577;-41
2022/09/19 02:04:47;;;;;;;2.85;0.90;;;14.40;51.20;;;;;;5035015;28;20174;-41
2022/09/19 02:07:13;;;;;;;1.90;1.55;;;14.50;51.30;;;;;;5034985;28;20232;-41
2022/09/19 02:09:53;;;;;;;1.80;1.50;;;14.40;51.20;;;;;;5034786;28;20206;-41
2022/09/19 02:12:22;;;;;;;1.88;1.40;;;14.50;51.40;;;;;;5034960;28;20169;-41
2022/09/19 02:14:55;;;;;;;2.05;1.52;;;14.40;51.30;;;;;;5034837;28;20261;-41
2022/09/19 02:17:44;;;;;;;2.55;1.70;;;14.50;51.30;;;;;;5034504;28;20638;-41
2022/09/19 02:20:18;;;;;;;2.63;1.70;;;14.50;51.30;;;;;;5034863;28;20205;-41
2022/09/19 02:22:54;;;;;;;3.38;1.88;;;14.40;51.50;;;;;;5034625;28;20181;-41
2022/09/19 02:25:25;;;;;;;4.50;1.95;;;14.40;51.50;;;;;;5034535;28;20198;-42
2022/09/19 02:28:08;;;;;;;3.05;2.13;;;14.40;51.60;;;;;;5034589;28;20158;-41
2022/09/19 02:30:35;;;;;;;3.60;2.13;;;14.50;51.70;;;;;;5034322;28;20202;-41
2022/09/19 02:33:06;;;;;;;5.22;2.72;;;14.50;51.60;;;;;;5034687;28;20173;-41
2022/09/19 02:35:55;;;;;;;10.85;2.45;;;14.50;51.70;;;;;;5034317;28;20162;-41
2022/09/19 02:38:35;;;;;;;2.60;2.40;;;14.50;51.50;;;;;;5034225;28;20154;-41
2022/09/19 02:41:37;;;;;;;2.50;2.17;;;14.50;51.50;;;;;;5034183;28;20673;-42
2022/09/19 02:44:05;;;;;;;3.15;2.50;;;14.50;51.40;;;;;;5034346;28;20213;-42
2022/09/19 02:46:55;;;;;;;3.90;1.90;;;14.40;51.30;;;;;;5033942;28;20170;-41
2022/09/19 02:49:43;;;;;;;3.50;2.65;;;14.40;51.40;;;;;;5033917;28;20206;-41
2022/09/19 02:52:21;;;;;;;3.55;2.97;;;14.30;51.60;;;;;;5034340;28;20211;-41
2022/09/19 02:54:53;;;;;;;6.85;2.88;;;14.30;51.80;;;;;;5034149;28;20158;-42
2022/09/19 02:57:22;;;;;;;4.85;3.42;;;14.30;51.90;;;;;;5033840;28;20176;-41
2022/09/19 02:59:51;;;;;;;4.47;2.95;;;14.30;51.70;;;;;;5033718;28;20700;-41
2022/09/19 03:02:31;;;;;;;6.03;3.58;;;14.40;51.70;;;;;;5033318;28;20174;-41
2022/09/19 03:05:05;;;;;;;6.55;2.63;;;14.30;51.70;;;;;;5033813;28;20170;-42
2022/09/19 03:07:40;;;;;;;7.57;3.60;;;14.40;51.70;;;;;;5033436;28;20193;-41
2022/09/19 03:10:12;;;;;;;2.50;2.30;;;14.40;51.60;;;;;;5033903;28;20213;-42
2022/09/19 03:12:50;;;;;;;3.00;2.67;;;14.40;51.50;;;;;;5033704;28;20158;-41
2022/09/19 03:15:24;;;;;;;4.93;2.78;;;14.40;51.50;;;;;;5033953;28;20162;-41
2022/09/19 03:17:53;;;;;;;3.10;2.42;;;14.40;51.40;;;;;;5033514;28;20170;-41
2022/09/19 03:20:22;;;;;;;3.60;3.30;;;14.40;51.40;;;;;;5033476;28;20194;-41
2022/09/19 03:22:49;;;;;;;7.25;3.63;;;14.40;51.40;;;;;;5033510;28;20166;-41
2022/09/19 03:25:14;;;;;;;7.60;3.00;;;14.40;51.30;;;;;;5033353;28;20190;-41
2022/09/19 03:27:40;;;;;;;6.33;3.20;;;14.40;51.50;;;;;;5033266;28;20174;-42
2022/09/19 03:30:09;;;;;;;6.50;3.42;;;14.40;51.40;;;;;;5033180;28;20456;-41
2022/09/19 03:32:39;;;;;;;3.75;3.03;;;14.40;51.30;;;;;;5033158;28;20538;-42
2022/09/19 03:35:06;;;;;;;4.40;3.10;;;14.50;51.30;;;;;;5033209;28;20804;-41
2022/09/19 03:37:33;;;;;;;7.55;3.42;;;14.40;51.30;;;;;;5032970;28;20257;-41
2022/09/19 03:39:59;;;;;;;4.40;3.00;;;14.40;51.20;;;;;;5033044;28;20208;-41
2022/09/19 03:42:26;;;;;;;3.60;3.08;;;14.50;51.20;;;;;;5033170;28;20197;-41
2022/09/19 03:44:53;;;;;;;3.45;3.08;;;14.40;51.20;;;;;;5033026;28;20170;-42
2022/09/19 03:47:21;;;;;;;3.35;3.05;;;14.50;51.30;;;;;;5032743;28;20170;-42
2022/09/19 03:49:50;;;;;;;6.30;3.25;;;14.50;51.10;;;;;;5032878;28;20252;-42
2022/09/19 03:52:19;;;;;;;6.25;4.70;;;14.50;51.10;;;;;;5033126;28;20178;-41
2022/09/19 03:54:45;;;;;;;5.82;5.00;;;14.50;51.20;;;;;;5032819;28;20585;-41
2022/09/19 03:57:12;;;;;;;6.88;5.70;;;14.50;51.20;;;;;;5032526;28;20258;-41
2022/09/19 03:59:41;;;;;;;6.28;5.68;;;14.50;51.00;;;;;;5032524;28;20213;-42
2022/09/19 04:02:08;;;;;;;6.70;5.20;;;14.50;51.10;;;;;;5032628;28;20193;-42
2022/09/19 04:04:34;;;;;;;8.32;5.43;;;14.50;51.20;;;;;;5078554;22;20320;-41
2022/09/19 04:07:01;;;;;;;5.57;5.07;;;14.60;51.10;;;;;;5051865;28;20579;-41
2022/09/19 04:09:27;;;;;;;6.45;4.82;;;14.50;51.30;;;;;;5052437;28;20252;-42
2022/09/19 04:11:55;;;;;;;5.82;5.28;;;14.50;51.40;;;;;;5052457;28;20169;-41
2022/09/19 04:14:21;;;;;;;9.23;5.68;;;14.50;51.40;;;;;;5051542;28;20268;-41
2022/09/19 04:16:47;;;;;;;6.90;5.10;;;14.50;51.30;;;;;;5052106;28;20260;-41
2022/09/19 04:19:13;;;;;;;6.30;4.70;;;14.50;51.50;;;;;;5052353;28;20248;-41
2022/09/19 04:21:42;;;;;;;5.60;4.03;;;14.50;51.50;;;;;;5052197;28;20482;-41
2022/09/19 04:24:12;;;;;;;5.78;4.55;;;14.50;51.50;;;;;;5052205;28;20451;-41
2022/09/19 04:26:38;;;;;;;6.47;4.20;;;14.50;51.50;;;;;;5052059;28;20856;-41
2022/09/19 04:29:06;;;;;;;4.23;3.80;;;14.50;51.50;;;;;;5052357;28;20206;-41
2022/09/19 04:31:39;;;;;;;12.48;5.05;;;14.50;51.80;;;;;;5052004;28;20204;-41
2022/09/19 04:34:14;;;;;;;4.95;3.83;;;14.50;51.70;;;;;;5051986;28;20272;-41
2022/09/19 04:36:41;;;;;;;4.80;4.28;;;14.50;51.70;;;;;;5051951;28;20168;-42
2022/09/19 04:39:07;;;;;;;11.68;4.97;;;14.50;51.70;;;;;;5052362;28;20185;-41
2022/09/19 04:41:34;;;;;;;4.28;3.70;;;14.60;51.60;;;;;;5052049;28;20169;-41
2022/09/19 04:44:01;;;;;;;4.78;4.22;;;14.60;51.50;;;;;;5051964;28;20649;-41
2022/09/19 04:46:28;;;;;;;6.63;3.95;;;14.60;51.50;;;;;;5051679;28;20181;-41
2022/09/19 04:48:57;;;;;;;7.32;4.50;;;14.60;51.50;;;;;;5051889;28;20181;-41
2022/09/19 04:51:24;;;;;;;5.85;3.42;;;14.60;51.50;;;;;;5052029;28;20258;-42
2022/09/19 04:53:50;;;;;;;5.68;3.53;;;14.60;51.60;;;;;;5051853;28;20268;-41
2022/09/19 04:56:18;;;;;;;6.53;3.92;;;14.60;51.50;;;;;;5051647;28;20165;-40
2022/09/19 04:58:47;;;;;;;6.32;4.60;;;14.70;51.60;;;;;;5051813;28;20173;-42
2022/09/19 05:01:16;;;;;;;4.32;3.90;;;14.70;51.70;;;;;;5051860;28;20603;-41
2022/09/19 05:03:43;;;;;;;6.05;3.60;;;14.70;51.60;;;;;;5051603;28;20220;-42
2022/09/19 05:06:11;;;;;;;9.55;4.03;;;14.70;51.60;;;;;;5051542;28;20195;-41
2022/09/19 05:08:37;;;;;;;7.22;3.50;;;14.70;51.70;;;;;;5051874;28;20188;-41
2022/09/19 05:11:05;;;;;;;5.60;3.38;;;14.80;51.60;;;;;;5051716;28;20728;-41
2022/09/19 05:13:34;;;;;;;6.82;3.70;;;14.70;51.60;;;;;;5051584;28;20273;-42
2022/09/19 05:16:01;;;;;;;8.65;4.30;;;14.70;51.70;;;;;;5051391;28;20180;-42
2022/09/19 05:18:28;;;;;;;5.28;4.05;;;14.80;51.60;;;;;;5051882;28;20177;-42
2022/09/19 05:20:55;;;;;;;4.88;4.13;;;14.80;51.60;;;;;;5051596;28;20174;-42
2022/09/19 05:23:24;;;;;;;4.25;3.83;;;14.80;51.60;;;;;;5051767;28;20200;-40
2022/09/19 05:25:54;;;;;;;5.30;4.00;;;14.80;51.60;;;;;;5053650;28;20166;-41
2022/09/19 05:28:26;;;;;;;6.07;4.05;;;14.80;51.70;;;;;;5055303;28;20653;-42
2022/09/19 05:30:55;;;;;;;6.53;3.75;;;14.80;51.70;;;;;;5055336;28;20204;-42
2022/09/19 05:33:26;;;;;;;5.60;3.60;;;14.80;51.70;;;;;;5055368;28;20268;-41
2022/09/19 05:35:55;;;;;;;5.05;4.07;;;14.80;51.70;;;;;;5055156;28;20169;-42
2022/09/19 05:38:23;;;;;;;4.72;3.75;;;14.80;51.70;;;;;;5055780;28;20177;-42
2022/09/19 05:40:56;;;;;;;11.45;3.80;;;14.80;51.70;;;;;;5055360;28;20201;-41
2022/09/19 05:43:23;;;;;;;4.05;3.53;;;14.80;51.70;;;;;;5055102;28;20193;-41
2022/09/19 05:45:53;;;;;;;5.97;4.20;;;14.80;51.70;;;;;;5054953;28;20260;-42
2022/09/19 05:48:19;;;;;;;6.07;4.07;;;14.90;51.70;;;;;;5055493;28;20556;-42
2022/09/19 05:50:47;;;;;;;6.35;4.85;;;14.90;51.80;;;;;;5055020;28;20220;-41
2022/09/19 05:55:59;;;;;;;7.88;5.20;;;14.90;51.90;;;;;;5054859;28;20200;-41
2022/09/19 05:58:25;;;;;;;8.85;6.28;;;14.90;51.90;;;;;;5054893;28;20256;-42
2022/09/19 06:00:52;;;;;;;6.18;5.35;;;14.90;52.10;;;;;;5054901;28;20182;-41
2022/09/19 06:03:20;;;;;;;7.05;5.18;;;14.90;52.10;;;;;;5054675;28;20205;-41
2022/09/19 06:05:48;;;;;;;6.90;4.82;;;14.90;52.00;;;;;;5054802;28;20181;-41
2022/09/19 06:08:16;;;;;;;8.93;5.45;;;14.90;52.50;;;;;;5054695;28;20648;-42
2022/09/19 06:10:42;;;;;;;7.70;4.88;;;14.90;52.70;;;;;;5054916;28;20651;-42
2022/09/19 06:13:17;;;;;;;5.93;4.28;;;14.90;52.50;;;;;;5054874;28;20273;-43
2022/09/19 06:15:43;;;;;;;6.15;5.00;;;14.90;52.50;;;;;;5054274;28;20531;-42
2022/09/19 06:18:09;;;;;;;5.77;4.63;;;15.00;52.50;;;;;;5054476;28;20173;-42
2022/09/19 06:20:36;;;;;;;7.80;4.85;;;15.00;52.50;;;;;;5054508;28;20929;-42
2022/09/19 06:23:04;;;;;;;6.82;4.43;;;15.00;52.30;;;;;;5054485;28;20754;-44
2022/09/19 06:25:30;;;;;;;6.15;4.60;;;15.10;52.50;;;;;;5054696;28;20177;-43
2022/09/19 06:27:59;;;;;;;7.15;3.78;;;15.10;52.30;;;;;;5053398;28;20185;-42
2022/09/19 06:30:26;;;;;;;6.38;5.20;;;15.10;52.40;;;;;;5054500;28;20228;-43
2022/09/19 06:32:52;;;;;;;11.85;5.30;;;15.10;52.30;;;;;;5054156;28;20235;-41
2022/09/19 06:35:20;;;;;;;7.30;4.95;;;15.10;52.20;;;;;;5054384;28;20165;-43
2022/09/19 06:37:47;;;;;;;9.25;6.00;;;15.10;52.30;;;;;;5053068;28;20173;-41
2022/09/19 06:40:14;;;;;;;5.47;4.65;;;15.10;52.50;;;;;;5054043;28;20260;-43
2022/09/19 06:42:40;;;;;;;9.43;5.93;;;15.10;52.60;;;;;;5054269;28;20181;-42
2022/09/19 06:45:07;;;;;;;6.85;4.93;;;15.10;52.60;;;;;;5053999;28;20177;-43
2022/09/19 06:47:35;;;;;;;6.32;4.75;;;15.10;52.60;;;;;;5053824;28;20188;-42
2022/09/19 06:50:01;;;;;;;8.70;4.85;;;15.10;52.70;;;;;;5054366;28;20204;-43
2022/09/19 06:52:27;;;;;;;6.63;4.85;;;15.10;52.90;;;;;;5054281;28;20255;-42
2022/09/19 06:54:53;;;;;;;6.47;4.53;;;15.00;52.90;;;;;;5054194;28;20220;-44
2022/09/19 06:57:19;;;;;;;8.38;4.95;;;15.00;53.00;;;;;;5053985;28;20411;-44
2022/09/19 06:59:45;;;;;;;8.43;5.05;;;15.00;53.20;;;;;;5053671;28;20173;-43
2022/09/19 07:02:11;;;;;;;5.93;4.77;;;15.10;53.40;;;;;;5053796;28;20215;-41
2022/09/19 07:04:38;;;;;;;5.38;4.88;;;15.10;53.40;;;;;;5053428;28;20216;-41
2022/09/19 07:07:05;;;;;;;8.65;5.00;;;15.20;53.20;;;;;;5053378;28;20181;-41
2022/09/19 07:09:31;;;;;;;5.68;4.80;;;15.20;53.20;;;;;;5053716;28;20227;-41
2022/09/19 07:11:56;;;;;;;7.37;5.80;;;15.20;53.20;;;;;;5053624;28;20641;-42
2022/09/19 07:14:23;;;;;;;6.97;5.30;;;15.10;53.30;;;;;;5053356;28;20507;-42
2022/09/19 07:16:49;;;;;;;5.82;4.63;;;15.20;53.20;;;;;;5053256;28;20181;-42
2022/09/19 07:19:15;;;;;;;7.43;5.47;;;15.20;53.10;;;;;;5053492;28;20177;-41
2022/09/19 07:21:41;;;;;;;5.30;4.57;;;15.30;53.20;;;;;;5053452;28;20434;-42
2022/09/19 07:24:07;;;;;;;6.07;4.07;;;15.30;53.10;;;;;;5053198;28;20439;-40
2022/09/19 07:26:33;;;;;;;6.90;4.97;;;15.30;53.20;;;;;;5053370;28;20407;-41
2022/09/19 07:28:59;;;;;;;6.93;4.95;;;15.40;53.00;;;;;;5053105;28;20188;-41
2022/09/19 07:31:26;;;;;;;7.87;5.27;;;15.40;53.20;;;;;;5053349;28;20204;-42
2022/09/19 07:33:53;;;;;;;5.90;4.93;;;15.40;53.10;;;;;;5053120;28;20424;-42
2022/09/19 07:36:21;;;;;;;6.10;4.50;;;15.40;53.40;;;;;;5053163;28;20295;-42
2022/09/19 07:38:48;;;;;;;5.35;4.55;;;15.40;53.10;;;;;;5053366;28;20249;-41
2022/09/19 07:41:16;;;;;;;4.53;4.13;;;15.30;53.00;;;;;;5053245;28;20185;-42
2022/09/19 07:43:42;;;;;;;4.95;4.25;;;15.30;53.10;;;;;;5052736;28;20201;-43
2022/09/19 07:46:08;;;;;;;6.23;4.67;;;15.30;53.20;;;;;;5052957;28;20273;-43
2022/09/19 07:48:33;;;;;;;6.30;4.93;;;15.30;53.50;;;;;;5052856;28;20975;-41
2022/09/19 07:51:02;;;;;;;5.67;4.63;;;15.30;53.40;;;;;;5052775;28;20247;-42
2022/09/19 07:53:27;;;;;;;4.70;4.30;;;15.40;53.60;;;;;;5052700;28;20599;-42
2022/09/19 07:55:55;;;;;;;4.33;3.93;;;15.40;53.40;;;;;;5052533;28;20169;-42
2022/09/19 07:58:24;;;;;;;5.20;4.35;;;15.50;53.50;;;;;;5052883;28;20177;-41
2022/09/19 08:00:50;;;;;;;4.95;4.45;;;15.50;53.60;;;;;;5052702;28;20173;-41
2022/09/19 08:03:18;;;;;;;6.78;4.80;;;15.50;53.60;;;;;;5052709;28;20577;-42
2022/09/19 08:05:50;;;;;;;4.25;3.88;;;15.50;53.70;;;;;;5052411;28;20181;-42
2022/09/19 08:08:18;;;;;;;5.35;4.85;;;15.60;53.50;;;;;;5052604;28;20173;-42
2022/09/19 08:10:44;;;;;;;5.45;4.95;;;15.60;53.20;;;;;;5052343;28;20660;-43
2022/09/19 08:13:13;;;;;;;6.13;4.38;;;15.60;53.20;;;;;;5052322;28;20709;-41
2022/09/19 08:15:40;;;;;;;4.45;4.05;;;15.60;53.20;;;;;;5052140;28;20177;-44
2022/09/19 08:18:14;;;;;;;5.30;4.05;;;15.60;53.20;;;;;;5052613;28;20173;-42
2022/09/19 08:20:41;;;;;;;4.68;3.47;;;15.50;53.20;;;;;;5052327;28;20532;-42
2022/09/19 08:23:09;;;;;;;3.80;3.15;;;15.50;53.20;;;;;;5052108;28;20542;-42
2022/09/19 08:25:38;;;;;;;3.42;3.10;;;15.50;53.20;;;;;;5051987;28;20188;-43
2022/09/19 08:28:03;;;;;;;6.45;3.03;;;15.50;53.30;;;;;;5052539;28;20185;-43
2022/09/19 08:30:31;;;;;;;3.50;2.93;;;15.50;53.50;;;;;;5052079;28;20266;-43
2022/09/19 08:33:00;;;;;;;2.55;2.33;;;15.50;53.40;;;;;;5052237;28;20176;-42
2022/09/19 08:35:27;;;;;;;3.30;3.00;;;15.60;53.50;;;;;;5052306;28;20279;-42
2022/09/19 08:37:58;;;;;;;2.60;2.40;;;15.60;53.40;;;;;;5051903;28;20223;-44
2022/09/19 08:40:39;;;;;;;3.58;2.65;;;15.60;53.70;;;;;;5052099;28;20169;-42
2022/09/19 08:43:33;;;;;;;4.72;2.40;;;15.70;53.50;;;;;;5052190;28;20251;-42
2022/09/19 08:46:20;;;;;;;3.05;2.15;;;15.70;53.80;;;;;;5051419;28;20227;-42
2022/09/19 08:49:11;;;;;;;7.47;2.97;;;15.70;53.40;;;;;;5052191;28;20231;-43
2022/09/19 08:51:43;;;;;;;2.92;2.63;;;15.60;53.40;;;;;;5051879;28;20185;-42
2022/09/19 08:54:27;;;;;;;3.45;2.90;;;15.50;53.20;;;;;;5051967;28;20642;-42
2022/09/19 08:56:53;;;;;;;2.67;1.75;;;15.60;53.70;;;;;;5051870;28;20231;-42
2022/09/19 08:59:23;;;;;;;2.55;2.20;;;15.60;53.70;;;;;;5051837;28;20170;-42
2022/09/19 09:01:55;;;;;;;3.53;2.92;;;15.60;53.60;;;;;;5056013;28;20522;-43
2022/09/19 09:04:30;;;;;;;2.97;2.72;;;15.70;53.70;;;;;;5055856;28;20207;-43
2022/09/19 09:07:14;;;;;;;7.50;2.75;;;15.70;54.00;;;;;;5055573;28;20181;-44
2022/09/19 09:09:55;;;;;;;4.07;2.80;;;15.80;53.80;;;;;;5056032;28;20172;-43
2022/09/19 09:12:26;;;;;;;3.60;3.30;;;15.80;54.00;;;;;;5055960;28;20510;-43
2022/09/19 09:15:01;;;;;;;4.00;3.05;;;15.80;53.90;;;;;;5055793;28;20197;-44
2022/09/19 09:17:32;;;;;;;4.55;3.70;;;15.90;53.80;;;;;;5055512;28;20219;-43
2022/09/19 09:20:13;;;;;;;3.58;3.28;;;15.90;53.60;;;;;;5055942;28;20573;-43
2022/09/19 09:22:59;;;;;;;3.40;3.10;;;15.90;53.50;;;;;;5054595;28;20195;-42
2022/09/19 09:25:30;;;;;;;4.15;3.58;;;15.90;53.60;;;;;;5055571;28;20188;-42
2022/09/19 09:28:15;;;;;;;5.75;4.55;;;16.00;53.60;;;;;;5055375;28;20669;-42
2022/09/19 09:30:47;;;;;;;6.93;4.68;;;15.90;53.50;;;;;;5055948;28;20197;-43
2022/09/19 09:33:31;;;;;;;4.90;4.40;;;15.90;53.50;;;;;;5055708;28;20233;-44
2022/09/19 09:36:01;;;;;;;5.68;4.38;;;16.00;53.50;;;;;;5053853;28;20181;-43
2022/09/19 09:38:34;;;;;;;5.95;5.35;;;15.90;53.60;;;;;;5055338;28;20256;-43
2022/09/19 09:44:47;;;;;;;6.25;5.35;;;16.00;53.60;;;;;;5055426;28;20204;-42
2022/09/19 09:47:32;;;;;;;8.27;5.03;;;15.80;53.50;;;;;;5054972;28;20177;-44
2022/09/19 09:50:18;;;;;;;7.28;5.55;;;15.80;54.00;;;;;;5055095;28;20197;-43
2022/09/19 09:52:58;;;;;;;12.20;6.15;;;15.80;53.90;;;;;;5055049;28;20240;-43
2022/09/19 09:58:24;;;;;;;7.82;5.60;;;15.80;54.20;;;;;;5055069;28;20252;-43
2022/09/19 10:03:54;;;;;;;8.23;5.57;;;15.90;54.40;;;;;;5055012;28;20630;-42
2022/09/19 10:06:45;;;;;;;12.60;5.80;;;16.00;54.10;;;;;;5054669;28;20177;-42
2022/09/19 10:09:25;;;;;;;6.00;5.05;;;16.00;54.20;;;;;;5053550;28;20174;-42
2022/09/19 10:12:29;;;;;;;6.43;5.82;;;16.00;54.20;;;;;;5053594;28;20205;-42
2022/09/19 10:15:00;;;;;;;6.07;5.45;;;16.10;54.30;;;;;;5049575;28;20220;-42
2022/09/19 10:17:32;;;;;;;5.82;5.15;;;16.10;54.40;;;;;;5065358;22;20218;-42
2022/09/19 10:20:03;;;;;;;7.40;5.78;;;16.20;54.20;;;;;;5030165;28;20181;-43
2022/09/19 10:22:29;;;;;;;6.65;5.47;;;16.20;54.10;;;;;;5034671;28;20625;-42
2022/09/19 10:25:01;;;;;;;6.72;5.55;;;16.20;53.90;;;;;;5034466;28;20265;-42
2022/09/19 10:27:49;;;;;;;5.90;4.75;;;16.30;53.90;;;;;;5034536;28;20263;-43
2022/09/19 10:30:20;;;;;;;7.20;5.03;;;16.30;53.50;;;;;;5034551;28;20588;-43
2022/09/19 10:32:47;;;;;;;5.45;4.90;;;16.30;53.60;;;;;;5034483;28;20165;-44
2022/09/19 10:35:38;;;;;;;6.05;5.45;;;16.30;53.40;;;;;;5034253;28;20178;-42
2022/09/19 10:38:13;;;;;;;6.78;5.32;;;16.30;53.70;;;;;;5034397;28;20196;-43
2022/09/19 10:40:58;;;;;;;8.52;5.63;;;16.30;53.80;;;;;;5034386;28;20223;-42
2022/09/19 10:43:39;;;;;;;7.05;5.13;;;16.30;53.70;;;;;;5034280;28;20683;-42
2022/09/19 10:46:07;;;;;;;8.45;6.07;;;16.30;53.80;;;;;;5034169;28;20178;-43
2022/09/19 10:48:34;;;;;;;8.02;5.43;;;16.30;53.60;;;;;;5034227;28;20280;-42
2022/09/19 10:51:09;;;;;;;8.45;5.50;;;16.30;53.80;;;;;;5033968;28;20210;-42
2022/09/19 10:53:41;;;;;;;8.82;6.13;;;16.30;54.60;;;;;;5034285;28;20612;-42
2022/09/19 10:56:22;;;;;;;8.27;7.47;;;16.30;54.00;;;;;;5033740;28;20556;-41
2022/09/19 10:59:09;;;;;;;7.47;6.70;;;16.40;53.90;;;;;;5034260;28;20154;-43
2022/09/19 11:01:34;;;;;;;11.55;6.40;;;16.40;54.20;;;;;;5026465;28;20272;-42
2022/09/19 11:04:24;;;;;;;6.97;6.17;;;16.50;53.90;;;;;;5033814;28;20213;-43
2022/09/19 11:07:02;;;;;;;7.90;6.57;;;16.60;53.90;;;;;;5033811;28;20210;-42
2022/09/19 11:09:37;;;;;;;7.18;5.75;;;16.60;53.80;;;;;;5033777;28;20166;-43
2022/09/19 11:12:13;;;;;;;7.68;6.97;;;16.70;53.70;;;;;;5033812;28;20240;-42
2022/09/19 11:14:48;;;;;;;9.23;6.75;;;16.70;53.50;;;;;;5033648;28;20252;-42
2022/09/19 11:17:47;;;;;;;7.53;5.72;;;16.70;53.30;;;;;;5033123;28;20209;-43
2022/09/19 11:20:31;;;;;;;9.88;5.80;;;16.70;53.60;;;;;;5033514;28;20304;-43
2022/09/19 11:23:28;;;;;;;7.85;6.05;;;16.80;53.60;;;;;;5033032;28;20215;-41
2022/09/19 11:26:18;;;;;;;5.85;5.22;;;16.90;53.40;;;;;;5033497;28;20162;-42
2022/09/19 11:29:04;;;;;;;5.68;4.85;;;17.00;53.10;;;;;;5033391;28;20170;-42
2022/09/19 11:31:47;;;;;;;5.53;4.82;;;17.00;52.90;;;;;;5033255;28;20699;-42
2022/09/19 11:34:38;;;;;;;6.30;4.82;;;17.00;52.60;;;;;;5033266;28;20158;-43
2022/09/19 11:37:25;;;;;;;5.88;4.85;;;17.10;52.80;;;;;;5033125;28;20205;-42
2022/09/19 11:40:10;;;;;;;5.85;5.25;;;17.10;52.30;;;;;;5033211;28;20170;-43
2022/09/19 11:43:12;;;;;;;7.13;5.55;;;17.10;52.60;;;;;;5033114;28;20247;-42
2022/09/19 11:45:44;;;;;;;6.55;5.28;;;17.10;51.80;;;;;;5032814;28;20588;-42
2022/09/19 11:48:19;;;;;;;5.57;3.95;;;17.20;52.50;;;;;;5032827;28;20269;-42
2022/09/19 11:51:20;;;;;;;6.65;5.95;;;17.30;52.30;;;;;;5032854;28;20200;-42
2022/09/19 11:54:04;;;;;;;5.55;3.97;;;17.40;52.80;;;;;;5013321;28;20188;-42
2022/09/19 11:56:36;;;;;;;7.90;4.15;;;17.50;51.80;;;;;;5032427;28;20272;-43
2022/09/19 11:59:08;;;;;;;4.28;3.88;;;17.50;51.50;;;;;;5032981;28;20589;-42
2022/09/19 12:02:09;;;;;;;4.47;3.65;;;17.60;51.90;;;;;;5032909;28;20206;-42
2022/09/19 12:04:42;;;;;;;4.60;3.28;;;17.70;51.20;;;;;;5032884;28;20151;-42
2022/09/19 12:07:29;;;;;;;3.33;3.03;;;17.80;51.20;;;;;;5032543;28;20230;-42
2022/09/19 12:10:06;;;;;;;4.38;3.80;;;17.90;51.30;;;;;;5032579;28;20189;-43
2022/09/19 12:12:36;;;;;;;4.43;3.70;;;18.10;51.70;;;;;;5032642;28;20635;-42
2022/09/19 12:15:22;;;;;;;3.80;2.80;;;18.20;51.30;;;;;;5032555;28;20256;-43
2022/09/19 12:18:06;;;;;;;2.83;2.25;;;18.30;50.80;;;;;;5032172;28;20219;-44
2022/09/19 12:20:45;;;;;;;3.53;3.20;;;18.40;50.70;;;;;;5032432;28;20181;-44
2022/09/19 12:26:21;;;;;;;5.45;2.85;;;18.50;49.90;;;;;;5032471;28;20308;-43
2022/09/19 12:28:56;;;;;;;2.88;1.92;;;18.50;50.30;;;;;;5032409;28;20549;-43
2022/09/19 12:31:32;;;;;;;3.50;3.20;;;18.50;49.60;;;;;;5032306;28;20197;-42
2022/09/19 12:34:14;;;;;;;3.47;2.42;;;18.60;49.80;;;;;;5032005;28;20642;-42
2022/09/19 12:37:36;;;;;;;2.70;2.13;;;18.80;50.80;;;;;;5031767;28;20244;-43
2022/09/19 12:40:40;;;;;;;4.93;2.60;;;18.90;49.50;;;;;;5023213;28;20189;-44
2022/09/19 12:43:43;;;;;;;3.20;2.90;;;19.10;49.50;;;;;;5032421;28;20165;-42
2022/09/19 12:46:49;;;;;;;3.05;2.38;;;19.10;48.00;;;;;;5031610;28;20188;-42
2022/09/19 12:49:37;;;;;;;2.90;2.28;;;19.20;49.00;;;;;;5032048;28;20292;-43
2022/09/19 12:52:21;;;;;;;3.05;2.05;;;19.30;48.90;;;;;;5032240;28;20205;-43
2022/09/19 12:55:15;;;;;;;2.70;2.50;;;19.40;48.60;;;;;;5031972;28;20158;-42
2022/09/19 12:58:01;;;;;;;4.10;1.80;;;19.40;47.70;;;;;;5031995;28;20238;-42
2022/09/19 13:00:29;;;;;;;2.05;1.85;;;19.30;47.40;;;;;;5032089;28;20256;-43
2022/09/19 13:03:07;;;;;;;4.20;2.47;;;19.20;46.70;;;;;;5031878;28;20181;-44
2022/09/19 13:05:42;;;;;;;2.53;2.05;;;19.00;46.30;;;;;;5031679;28;20688;-43
2022/09/19 13:08:23;;;;;;;1.90;1.48;;;18.90;47.80;;;;;;5031893;28;20699;-42
2022/09/19 13:11:07;;;;;;;2.03;1.75;;;18.90;47.30;;;;;;5031709;28;20740;-42
2022/09/19 13:14:17;;;;;;;2.90;1.95;;;18.90;47.60;;;;;;5031858;28;20170;-44
2022/09/19 13:25:19;;;;;;;2.40;1.70;;;19.50;47.50;;;;;;5032144;28;20212;-42
2022/09/19 13:27:45;;;;;;;3.40;1.52;;;19.80;47.70;;;;;;5031786;28;20190;-43
2022/09/19 13:30:49;;;;;;;1.85;1.52;;;20.10;47.20;;;;;;5031617;28;20670;-43
2022/09/19 13:33:30;;;;;;;9.32;2.30;;;20.20;45.70;;;;;;5031752;28;20174;-42
2022/09/19 13:36:06;;;;;;;4.90;1.55;;;20.40;42.30;;;;;;5031668;28;20162;-42
2022/09/19 13:38:55;;;;;;;2.85;1.50;;;20.40;43.40;;;;;;5031530;28;20190;-42
2022/09/19 13:41:44;;;;;;;5.43;1.58;;;20.30;43.60;;;;;;5031780;28;20186;-42
2022/09/19 13:44:12;;;;;;;2.13;1.13;;;20.30;43.90;;;;;;5031613;28;20744;-43
2022/09/19 13:46:52;;;;;;;2.30;1.40;;;20.40;43.40;;;;;;5033051;28;20177;-42
2022/09/19 13:49:40;;;;;;;2.22;2.03;;;20.50;44.10;;;;;;5035433;28;20231;-43